Flight Track Log - Related Links

Times and Time Zones

All times are in EST time to prevent confusion due to time zone crossing. See the XOJ552 flight status page for this flight to view local times or setup timezone preferences in your user account.

Time Position Orientation Groundspeed Altitude Reporting Facility
EST Latitude Longitude Course Direction KTS MPH feet Rate Location/Type
Mon 01:35:41 PM 26.4536 -81.8731 230° Southwest 220 253 5,800  Level Miami Center
Mon 01:36:41 PM 26.4078 -81.9336 230° Southwest 251 289 9,600 3,600 Climbing Miami Center
Mon 01:37:41 PM 26.3781 -82.0089 246° West 268 308 13,000 3,350 Climbing Miami Center
Mon 01:38:41 PM 26.4106 -82.0914 294° West 256 295 16,300 2,700 Climbing Miami Center
Mon 01:39:41 PM 26.4389 -82.1739 291° West 283 326 18,400 2,250 Climbing Miami Center
Mon 01:40:41 PM 26.4772 -82.2658 295° West 315 362 20,800 2,350 Climbing Miami Center
Mon 01:41:41 PM 26.5133 -82.3603 293° West 326 375 23,100 2,200 Climbing Miami Center
Mon 01:42:41 PM 26.5494 -82.4572 293° West 336 387 25,200 1,950 Climbing Miami Center
Mon 01:43:41 PM 26.5872 -82.5589 293° West 342 394 27,000 2,000 Climbing Miami Center
Mon 01:44:41 PM 26.6247 -82.6606 292° West 352 405 29,200 1,500 Climbing Miami Center
Mon 01:45:41 PM 26.6667 -82.7647 294° West 358 412 30,000 1,000 Climbing Miami Center
Mon 01:46:41 PM 26.7081 -82.8736 293° West 363 418 31,200 1,200 Climbing Miami Center
Mon 01:47:41 PM 26.7511 -82.9875 293° West 376 433 32,400 1,300 Climbing Miami Center
Mon 01:48:41 PM 26.7925 -83.0989 293° West 387 445 33,800 1,150 Climbing Miami Center
Mon 01:49:41 PM 26.8317 -83.2058 292° West 382 440 34,700 750 Climbing Miami Center
Mon 01:50:41 PM 26.8875 -83.3086 301° West 382 440 35,300 700 Climbing Miami Center
Mon 01:51:41 PM 26.9625 -83.4061 311° West 393 452 36,100 850 Climbing Miami Center
Mon 01:52:41 PM 27.0353 -83.4986 311° West 399 459 37,000 750 Climbing Miami Center
Mon 01:53:41 PM 27.0975 -83.6000 305° West 399 459 37,600 600 Climbing Miami Center
Mon 01:54:41 PM 27.1419 -83.7169 293° West 399 459 38,200 650 Climbing Miami Center
Mon 01:55:41 PM 27.1781 -83.8333 289° West 399 459 38,900 400 Climbing Miami Center
Mon 01:56:41 PM 27.2186 -83.9456 292° West 404 465 39,000 50 Climbing Miami Center
Mon 01:57:41 PM 27.2608 -84.0625 292° West 399 459 39,000  Level Miami Center
Mon 01:58:41 PM 27.2969 -84.1742 290° West 399 459 39,000  Level Miami Center
Mon 01:59:41 PM 27.3389 -84.2889 292° West 399 459 39,000  Level Miami Center
Mon 02:00:41 PM 27.3747 -84.4033 289° West 399 459 39,000 150 Level Miami Center
Mon 02:01:41 PM 27.4167 -84.5161 293° West 399 459 39,300 400 Climbing Miami Center
Mon 02:02:41 PM 27.4972 -84.6103 314° West 399 459 39,800 550 Climbing Miami Center
Mon 02:03:41 PM 27.5686 -84.7133 308° West 405 466 40,400 550 Climbing Miami Center
Mon 02:04:41 PM 27.5939 -84.8250 284° West 383 441 40,900 497 Climbing Miami Center
Mon 02:06:06 PM 27.6528 -85.0008 291° West 390 449 41,600 497 Climbing Jacksonville Center
Mon 02:07:06 PM 27.6883 -85.1256 288° West 402 463 42,100 500 Climbing Jacksonville Center
Mon 02:08:06 PM 27.7261 -85.2319 292° West 397 457 42,600 450 Climbing Jacksonville Center
Mon 02:09:06 PM 27.7636 -85.3431 291° West 387 445 43,000 200 Climbing Jacksonville Center
Mon 02:10:06 PM 27.7989 -85.4611 289° West 393 452 43,000  Level Jacksonville Center
Mon 02:11:06 PM 27.8364 -85.5678 292° West 393 452 43,000  Level Jacksonville Center
Mon 02:12:06 PM 27.8733 -85.6861 289° West 397 457 43,000  Level Jacksonville Center
Mon 02:13:06 PM 27.9106 -85.8069 289° West 392 451 43,000  Level Jacksonville Center
Mon 02:14:06 PM 27.9453 -85.9253 288° West 392 451 43,000  Level Jacksonville Center
Mon 02:15:06 PM 27.9822 -86.0392 290° West 390 449 43,000  Level Jacksonville Center
Mon 02:16:06 PM 28.0189 -86.1556 290° West 390 449 43,000  Level Jacksonville Center
Mon 02:17:06 PM 28.0556 -86.2694 290° West 395 455 43,000  Level Jacksonville Center
Mon 02:18:06 PM 28.0900 -86.3858 289° West 390 449 43,000  Level Jacksonville Center
Mon 02:19:06 PM 28.1283 -86.5097 289° West 395 455 43,000  Level Jacksonville Center
Mon 02:20:06 PM 28.1544 -86.6189 285° West 387 445 43,000  Level Jacksonville Center
Mon 02:21:06 PM 28.1842 -86.7422 285° West 393 452 43,000  Level Jacksonville Center
Mon 02:22:06 PM 28.2119 -86.8611 285° West 388 447 43,000  Level Jacksonville Center
Mon 02:23:06 PM 28.2417 -86.9778 286° West 388 447 43,000  Level Jacksonville Center
Mon 02:24:06 PM 28.2692 -87.0942 285° West 394 453 43,000  Level Jacksonville Center
Mon 02:25:06 PM 28.2964 -87.2133 285° West 389 448 43,000  Level Jacksonville Center
Mon 02:26:06 PM 28.3203 -87.3086 286° West 389 448 43,000  Level Jacksonville Center
Mon 02:27:06 PM 28.3533 -87.4372 286° West 389 448 43,000  Level Jacksonville Center
Mon 02:28:32 PM 28.3931 -87.6139 284° West 388 447 43,000  Level Houston Center
Mon 02:29:34 PM 28.4208 -87.7331 285° West 388 447 43,000  Level Houston Center
Mon 02:30:36 PM 28.4489 -87.8519 285° West 388 447 43,000  Level Houston Center
Mon 02:31:38 PM 28.4758 -87.9692 285° West 387 445 43,000  Level Houston Center
Mon 02:32:40 PM 28.5033 -88.0886 285° West 388 447 43,000  Level Houston Center
Mon 02:33:43 PM 28.5317 -88.2097 285° West 386 444 43,000  Level Houston Center
Mon 02:34:45 PM 28.5578 -88.3269 284° West 386 444 43,000  Level Houston Center
Mon 02:35:47 PM 28.5903 -88.4700 285° West 386 444 43,000  Level Houston Center
Mon 02:36:49 PM 28.6167 -88.5892 284° West 387 445 43,000  Level Houston Center
Mon 02:37:51 PM 28.6436 -88.7083 284° West 387 445 43,000  Level Houston Center
Mon 02:38:54 PM 28.6706 -88.8261 285° West 387 445 43,000  Level Houston Center
Mon 02:39:56 PM 28.6975 -88.9450 285° West 387 445 43,000  Level Houston Center
Mon 02:40:58 PM 28.7292 -89.0886 284° West 388 447 43,000  Level Houston Center
Mon 02:42:00 PM 28.7553 -89.2064 284° West 387 445 43,000  Level Houston Center
Mon 02:43:02 PM 28.7806 -89.3247 284° West 386 444 43,000  Level Houston Center
Mon 02:44:04 PM 28.8069 -89.4419 284° West 385 443 43,000  Level Houston Center
Mon 02:45:07 PM 28.8331 -89.5606 284° West 385 443 43,000  Level Houston Center
Mon 02:46:09 PM 28.8572 -89.6833 283° West 391 450 43,000  Level Houston Center
Mon 02:47:11 PM 28.8889 -89.8242 284° West 387 445 43,000  Level Houston Center
Mon 02:48:13 PM 28.9144 -89.9417 284° West 386 444 43,000  Level Houston Center
Mon 02:49:15 PM 28.9403 -90.0572 284° West 380 437 43,000  Level Houston Center
Mon 02:50:18 PM 28.9644 -90.1758 283° West 380 437 43,000  Level Houston Center
Mon 02:51:20 PM 28.9897 -90.2928 284° West 380 437 43,000  Level Houston Center
Mon 02:52:22 PM 29.0150 -90.4108 284° West 380 437 43,000  Level Houston Center
Mon 02:53:25 PM 29.0444 -90.5519 283° West 380 437 43,000  Level Houston Center
Mon 02:54:26 PM 29.0700 -90.6689 284° West 380 437 43,000  Level Houston Center
Mon 02:55:28 PM 29.0942 -90.7867 283° West 380 437 43,000  Level Houston Center
Mon 02:56:31 PM 29.1181 -90.9028 283° West 380 437 43,000  Level Houston Center
Mon 02:57:33 PM 29.1419 -91.0200 283° West 380 437 43,000  Level Houston Center
Mon 02:58:35 PM 29.1664 -91.1378 283° West 380 437 43,000  Level Houston Center
Mon 02:59:37 PM 29.1947 -91.2764 283° West 378 435 43,000  Level Houston Center
Mon 03:00:39 PM 29.2189 -91.3942 283° West 378 435 43,000  Level Houston Center
Mon 03:01:41 PM 29.2425 -91.5114 283° West 378 435 43,000  Level Houston Center
Mon 03:02:44 PM 29.2664 -91.6269 283° West 377 434 43,000 288 Level Houston Center
Mon 03:03:46 PM 29.2931 -91.7586 283° West 374 430 43,600 532 Climbing Houston Center
Mon 03:04:48 PM 29.3158 -91.8719 283° West 370 426 44,100 387 Climbing Houston Center
Mon 03:05:50 PM 29.3369 -91.9836 282° West 364 419 44,400 290 Climbing Houston Center
Mon 03:06:52 PM 29.3597 -92.0944 283° West 363 418 44,700 290 Climbing Houston Center
Mon 03:07:54 PM 29.3817 -92.2047 283° West 360 414 45,000 144 Climbing Houston Center
Mon 03:08:57 PM 29.4033 -92.3156 283° West 358 412 45,000  Level Houston Center
Mon 03:09:59 PM 29.4275 -92.4497 282° West 358 412 45,000  Level Houston Center
Mon 03:11:01 PM 29.4517 -92.5642 284° West 362 417 45,000  Level Houston Center
Mon 03:12:03 PM 29.4731 -92.6761 282° West 362 417 45,000  Level Houston Center
Mon 03:13:05 PM 29.4936 -92.7914 282° West 363 418 45,000  Level Houston Center
Mon 03:14:07 PM 29.5150 -92.9044 282° West 363 418 45,000  Level Houston Center
Mon 03:15:10 PM 29.5381 -93.0178 283° West 363 418 45,000  Level Houston Center
Mon 03:16:12 PM 29.5697 -93.1539 285° West 364 419 45,000  Level Houston Center
Mon 03:17:14 PM 29.5950 -93.2664 285° West 364 419 45,000  Level Houston Center
Mon 03:18:16 PM 29.6211 -93.3792 285° West 364 419 45,000  Level Houston Center
Mon 03:19:18 PM 29.6464 -93.4928 284° West 364 419 45,000  Level Houston Center
Mon 03:20:21 PM 29.6711 -93.6064 284° West 364 419 45,000  Level Houston Center
Mon 03:21:23 PM 29.6964 -93.7200 284° West 364 419 45,000  Level Houston Center
Mon 03:22:25 PM 29.7269 -93.8567 284° West 365 420 45,000  Level Houston Center
Mon 03:23:27 PM 29.7514 -93.9689 284° West 365 420 45,000  Level Houston Center
Mon 03:24:30 PM 29.7761 -94.0817 284° West 364 419 45,000  Level Houston Center
Mon 03:25:31 PM 29.8011 -94.1942 284° West 363 418 45,000  Level Houston Center
Mon 03:26:34 PM 29.8247 -94.3058 284° West 363 418 45,000  Level Houston Center
Mon 03:27:36 PM 29.8492 -94.4181 284° West 362 417 45,000  Level Houston Center
Mon 03:28:38 PM 29.8783 -94.5506 284° West 360 414 45,000  Level Houston Center
Mon 03:29:40 PM 29.9006 -94.6628 283° West 359 413 45,000  Level Houston Center
Mon 03:30:42 PM 29.9258 -94.7750 285° West 359 413 45,000  Level Houston Center
Mon 03:31:45 PM 29.9508 -94.8981 283° West 359 413 45,000  Level Houston Center
Mon 03:32:47 PM 29.9744 -95.0089 284° West 359 413 45,000  Level Houston Center
Mon 03:33:49 PM 29.9983 -95.1194 284° West 359 413 45,000  Level Houston Center
Mon 03:34:51 PM 30.0250 -95.2306 286° West 358 412 45,000  Level Houston Center
Mon 03:35:53 PM 30.0514 -95.3414 285° West 358 412 45,000  Level Houston Center
Mon 03:36:55 PM 30.0794 -95.4603 285° West 358 412 45,000  Level Houston Center
Mon 03:37:58 PM 30.1047 -95.5697 285° West 358 412 45,000  Level Houston Center
Mon 03:39:00 PM 30.1297 -95.6808 285° West 358 412 45,000  Level Houston Center
Mon 03:40:02 PM 30.1597 -95.8128 285° West 358 412 45,000  Level Houston Center
Mon 03:41:04 PM 30.1867 -95.9231 286° West 357 411 45,000  Level Houston Center
Mon 03:42:06 PM 30.2111 -96.0350 284° West 358 412 45,000  Level Houston Center
Mon 03:43:08 PM 30.2367 -96.1472 285° West 357 411 45,000  Level Houston Center
Mon 03:44:11 PM 30.2628 -96.2597 285° West 358 412 45,000  Level Houston Center
Mon 03:45:13 PM 30.2922 -96.3903 285° West 357 411 45,000  Level Houston Center
Mon 03:46:15 PM 30.3172 -96.5042 284° West 358 412 45,000  Level Houston Center
Mon 03:47:17 PM 30.3425 -96.6172 285° West 358 412 45,000  Level Houston Center
Mon 03:48:19 PM 30.3667 -96.7311 284° West 358 412 45,000  Level Houston Center
Mon 03:49:22 PM 30.3931 -96.8444 285° West 360 414 45,000  Level Houston Center
Mon 03:50:24 PM 30.4178 -96.9586 284° West 360 414 45,000  Level Houston Center
Mon 03:51:26 PM 30.4425 -97.0719 284° West 360 414 45,000  Level Houston Center
Mon 03:52:28 PM 30.4683 -97.1875 285° West 360 414 45,000  Level Houston Center
Mon 03:53:30 PM 30.4928 -97.3025 284° West 361 415 45,000  Level Houston Center
Mon 03:54:33 PM 30.5217 -97.4372 284° West 361 415 45,000  Level Houston Center
Mon 03:55:35 PM 30.5458 -97.5536 284° West 363 418 45,000  Level Houston Center
Mon 03:56:37 PM 30.5714 -97.6700 284° West 364 419 45,000  Level Houston Center
Mon 03:57:39 PM 30.5956 -97.7867 284° West 365 420 45,000  Level Houston Center
Mon 03:58:41 PM 30.6217 -97.9042 285° West 370 426 45,000  Level Houston Center
Mon 03:59:43 PM 30.6464 -98.0225 284° West 370 426 45,000  Level Houston Center
Mon 04:00:46 PM 30.6711 -98.1400 284° West 370 426 45,000  Level Houston Center
Mon 04:01:48 PM 30.6986 -98.2781 283° West 371 427 45,000  Level Houston Center
Mon 04:02:50 PM 30.7242 -98.3958 284° West 371 427 45,000  Level Houston Center
Mon 04:03:52 PM 30.7483 -98.5136 283° West 371 427 45,000  Level Houston Center
Mon 04:04:54 PM 30.7731 -98.6325 284° West 372 428 45,000  Level Houston Center
Mon 04:05:57 PM 30.7983 -98.7511 284° West 373 429 45,000  Level Houston Center
Mon 04:06:59 PM 30.8222 -98.8703 283° West 373 429 45,000  Level Houston Center
Mon 04:08:01 PM 30.8461 -98.9894 283° West 373 429 45,000  Level Houston Center
Mon 04:09:03 PM 30.8739 -99.1281 283° West 374 430 45,000  Level Houston Center
Mon 04:10:05 PM 30.8975 -99.2436 283° West 376 433 45,000  Level Houston Center
Mon 04:11:08 PM 30.9206 -99.3617 283° West 376 433 45,000  Level Houston Center
Mon 04:12:10 PM 30.9450 -99.4800 284° West 376 433 45,000  Level Houston Center
Mon 04:13:12 PM 30.9728 -99.6208 283° West 375 432 45,000  Level Houston Center
Mon 04:14:14 PM 30.9967 -99.7378 283° West 372 428 45,000 -48 Level Houston Center
Mon 04:15:16 PM 31.0186 -99.8536 282° West 371 427 44,900  Descending Houston Center
Mon 04:16:19 PM 31.0414 -99.9706 283° West 372 428 45,000 48 Climbing Houston Center
Mon 04:17:21 PM 31.0647 -100.0906 283° West 379 436 45,000  Level Houston Center
Mon 04:18:23 PM 31.0928 -100.2339 283° West 380 437 45,000  Level Houston Center
Mon 04:19:25 PM 31.1156 -100.3550 282° West 381 438 45,000  Level Houston Center
Mon 04:20:27 PM 31.1389 -100.4775 283° West 384 442 45,000  Level Houston Center
Mon 04:21:29 PM 31.1617 -100.5997 282° West 386 444 45,000  Level Houston Center
Mon 04:22:32 PM 31.1847 -100.7200 283° West 385 443 45,000  Level Houston Center
Mon 04:23:34 PM 31.2064 -100.8406 282° West 384 442 45,000  Level Houston Center
Mon 04:24:36 PM 31.2333 -100.9842 282° West 382 440 45,000  Level Houston Center
Mon 04:25:38 PM 31.2539 -101.0978 282° West 382 440 45,000  Level Houston Center
Mon 04:26:40 PM 31.2767 -101.2169 283° West 381 438 45,000  Level Houston Center
Mon 04:27:42 PM 31.3025 -101.3614 282° West 381 438 45,000  Level Houston Center
Mon 04:28:45 PM 31.3239 -101.4825 282° West 381 438 45,000  Level Houston Center
Mon 04:31:08 PM 31.3769 -101.7703 282° West 380 437 45,000  Level Albuquerque Center
Mon 04:32:10 PM 31.3994 -101.8964 282° West 382 440 45,000  Level Albuquerque Center
Mon 04:33:12 PM 31.4200 -102.0239 281° West 393 452 45,000  Level Albuquerque Center
Mon 04:34:14 PM 31.4411 -102.1450 282° West 385 443 45,000  Level Albuquerque Center
Mon 04:35:16 PM 31.4631 -102.2667 282° West 382 440 45,000  Level Albuquerque Center
Mon 04:36:18 PM 31.4844 -102.3889 282° West 383 441 45,000  Level Albuquerque Center
Mon 04:37:20 PM 31.5069 -102.5206 281° West 380 437 45,000  Level Albuquerque Center
Mon 04:38:22 PM 31.5275 -102.6425 281° West 383 441 45,000  Level Albuquerque Center
Mon 04:39:24 PM 31.5481 -102.7625 281° West 379 436 45,000  Level Albuquerque Center
Mon 04:40:26 PM 31.5731 -102.9083 281° West 382 440 45,000  Level Albuquerque Center
Mon 04:41:28 PM 31.5933 -103.0308 281° West 383 441 45,000  Level Albuquerque Center
Mon 04:42:30 PM 31.6131 -103.1503 281° West 378 435 45,000  Level Albuquerque Center
Mon 04:43:32 PM 31.6322 -103.2717 281° West 379 436 45,000  Level Albuquerque Center
Mon 04:44:34 PM 31.6531 -103.3936 281° West 380 437 45,000  Level Albuquerque Center
Mon 04:45:36 PM 31.6761 -103.5342 281° West 382 440 45,000  Level Albuquerque Center
Mon 04:46:38 PM 31.6961 -103.6561 281° West 381 438 45,000  Level Albuquerque Center
Mon 04:47:39 PM 31.7164 -103.7806 281° West 380 437 45,000  Level Albuquerque Center
Mon 04:48:41 PM 31.7369 -103.9014 281° West 379 436 45,000  Level Albuquerque Center
Mon 04:49:43 PM 31.7572 -104.0239 281° West 382 440 45,000  Level Albuquerque Center
Mon 04:50:45 PM 31.7764 -104.1458 281° West 382 440 45,000  Level Albuquerque Center
Mon 04:51:47 PM 31.7942 -104.2664 280° West 379 436 45,000  Level Albuquerque Center
Mon 04:52:49 PM 31.8189 -104.4150 281° West 385 443 45,000  Level Albuquerque Center
Mon 04:53:51 PM 31.8383 -104.5386 281° West 387 445 45,000  Level Albuquerque Center
Mon 04:54:53 PM 31.8569 -104.6639 280° West 389 448 45,000  Level Albuquerque Center
Mon 04:55:55 PM 31.8761 -104.7889 280° West 391 450 45,000  Level Albuquerque Center
Mon 04:56:57 PM 31.8967 -104.9139 281° West 391 450 45,000  Level Albuquerque Center
Mon 04:57:59 PM 31.9197 -105.0669 280° West 397 457 45,000  Level Albuquerque Center
Mon 04:59:01 PM 31.9386 -105.1967 280° West 401 461 45,000  Level Albuquerque Center
Mon 05:00:03 PM 31.9578 -105.3278 280° West 407 468 45,000  Level Albuquerque Center
Mon 05:01:05 PM 31.9775 -105.4583 280° West 407 468 45,000  Level Albuquerque Center
Mon 05:02:07 PM 31.9964 -105.5883 280° West 406 467 45,000  Level Albuquerque Center
Mon 05:03:09 PM 32.0161 -105.7192 280° West 407 468 45,000  Level Albuquerque Center
Mon 05:04:11 PM 32.0381 -105.8769 279° West 407 468 45,000  Level Albuquerque Center
Mon 05:05:13 PM 32.0575 -106.0036 280° West 408 470 45,000  Level Albuquerque Center
Mon 05:06:15 PM 32.0756 -106.1344 279° West 406 467 45,000  Level Albuquerque Center
Mon 05:07:17 PM 32.0956 -106.2672 280° West 410 472 45,000  Level Albuquerque Center
Mon 05:08:19 PM 32.1139 -106.4003 279° West 412 474 45,000  Level Albuquerque Center
Mon 05:09:21 PM 32.1367 -106.5622 279° West 417 480 45,000  Level Albuquerque Center
Mon 05:10:23 PM 32.1550 -106.6967 279° West 416 479 45,000  Level Albuquerque Center
Mon 05:11:25 PM 32.1742 -106.8331 279° West 418 481 45,000  Level Albuquerque Center
Mon 05:12:27 PM 32.1939 -106.9783 279° West 419 482 45,000  Level Albuquerque Center
Mon 05:13:29 PM 32.2128 -107.1250 279° West 419 482 45,000  Level Albuquerque Center
Mon 05:14:31 PM 32.2283 -107.2367 279° West 421 484 45,000  Level Albuquerque Center
Mon 05:15:33 PM 32.2475 -107.4039 278° West 427 491 45,000  Level Albuquerque Center
Mon 05:16:35 PM 32.2642 -107.5225 279° West 425 489 45,000  Level Albuquerque Center
Mon 05:17:36 PM 32.2953 -107.6878 283° West 428 493 45,000  Level Albuquerque Center
Mon 05:18:38 PM 32.3292 -107.8239 286° West 429 494 45,000  Level Albuquerque Center
Mon 05:19:40 PM 32.3625 -107.9619 286° West 434 499 45,000 -48 Level Albuquerque Center
Mon 05:20:42 PM 32.3975 -108.1008 287° West 439 505 44,900  Descending Albuquerque Center
Mon 05:21:44 PM 32.4308 -108.2392 286° West 438 504 45,000 48 Climbing Albuquerque Center
Mon 05:22:46 PM 32.4700 -108.3944 287° West 440 506 45,000  Level Albuquerque Center
Mon 05:23:48 PM 32.5036 -108.5342 286° West 441 507 45,000  Level Albuquerque Center
Mon 05:24:50 PM 32.5375 -108.6750 286° West 443 510 45,000  Level Albuquerque Center
Mon 05:25:52 PM 32.5703 -108.8164 285° West 443 510 45,000  Level Albuquerque Center
Mon 05:26:54 PM 32.6036 -108.9564 286° West 440 506 45,000  Level Albuquerque Center
Mon 05:27:56 PM 32.6375 -109.0956 286° West 437 503 45,000  Level Albuquerque Center
Mon 05:28:58 PM 32.6694 -109.2350 285° West 436 502 45,000  Level Albuquerque Center
Mon 05:29:59 PM 32.7083 -109.4003 286° West 433 498 45,000  Level Albuquerque Center
Mon 05:31:01 PM 32.7425 -109.5400 286° West 436 502 45,000  Level Albuquerque Center
Mon 05:32:03 PM 32.7736 -109.6775 285° West 432 497 45,000  Level Albuquerque Center
Mon 05:33:05 PM 32.8064 -109.8153 286° West 432 497 45,000  Level Albuquerque Center
Mon 05:34:07 PM 32.8372 -109.9533 285° West 433 498 45,000  Level Albuquerque Center
Mon 05:35:09 PM 32.8694 -110.0917 286° West 433 498 45,000  Level Albuquerque Center
Mon 05:36:11 PM 32.9000 -110.2283 285° West 430 495 45,000  Level Albuquerque Center
Mon 05:37:12 PM 32.9306 -110.3639 285° West 427 491 45,000  Level Albuquerque Center
Mon 05:38:14 PM 32.9678 -110.5283 285° West 429 494 45,000  Level Albuquerque Center
Mon 05:39:16 PM 32.9981 -110.6658 285° West 429 494 45,000  Level Albuquerque Center
Mon 05:40:18 PM 33.0269 -110.7961 285° West 427 491 45,000  Level Albuquerque Center
Mon 05:41:20 PM 33.0572 -110.9317 285° West 425 489 45,000  Level Albuquerque Center
Mon 05:42:22 PM 33.0864 -111.0656 285° West 419 482 45,000  Level Albuquerque Center
Mon 05:43:23 PM 33.1214 -111.2297 284° West 424 488 45,000  Level Albuquerque Center
Mon 05:44:25 PM 33.1517 -111.3664 285° West 425 489 45,000  Level Albuquerque Center
Mon 05:45:27 PM 33.1806 -111.5022 284° West 423 487 45,000  Level Albuquerque Center
Mon 05:46:29 PM 33.2092 -111.6397 284° West 425 489 45,000  Level Albuquerque Center
Mon 05:47:31 PM 33.2389 -111.7769 285° West 425 489 45,000  Level Albuquerque Center
Mon 05:48:32 PM 33.2678 -111.9147 284° West 425 489 45,000  Level Albuquerque Center
Mon 05:49:34 PM 33.2967 -112.0542 284° West 429 494 45,000  Level Albuquerque Center
Mon 05:50:36 PM 33.3250 -112.1936 284° West 430 495 45,000  Level Albuquerque Center
Mon 05:51:38 PM 33.3594 -112.3622 284° West 433 498 45,000  Level Albuquerque Center
Mon 05:52:40 PM 33.3881 -112.5014 284° West 432 497 45,000  Level Albuquerque Center
Mon 05:53:41 PM 33.4158 -112.6342 284° West 432 497 45,000  Level Albuquerque Center
Mon 05:54:43 PM 33.4439 -112.7719 284° West 431 496 45,000  Level Albuquerque Center
Mon 05:55:45 PM 33.4711 -112.9122 283° West 433 498 45,000  Level Albuquerque Center
Mon 05:56:47 PM 33.5033 -113.0803 283° West 433 498 45,000  Level Albuquerque Center
Mon 05:57:48 PM 33.5303 -113.2203 283° West 434 499 45,000  Level Albuquerque Center
Mon 05:58:50 PM 33.5564 -113.3597 283° West 433 498 45,000  Level Albuquerque Center
Mon 05:59:52 PM 33.5833 -113.5003 283° West 434 499 45,000  Level Albuquerque Center
Mon 06:00:54 PM 33.6128 -113.6528 283° West 435 501 45,000  Level Albuquerque Center
Mon 06:01:55 PM 33.6478 -113.7925 287° West 437 503 45,000  Level Albuquerque Center
Mon 06:02:57 PM 33.6839 -113.9308 287° West 436 502 45,000  Level Albuquerque Center
Mon 06:03:59 PM 33.7178 -114.0689 286° West 434 499 45,000  Level Albuquerque Center
Mon 06:05:00 PM 33.7550 -114.2219 286° West 433 498 45,000  Level Albuquerque Center
Mon 06:06:03 PM 33.7894 -114.3583 287° West 429 494 45,000  Level Albuquerque Center
Mon 06:06:35 PM 33.8067 -114.4269 287° West 430 495 45,000  Level Los Angeles Center
Mon 06:07:37 PM 33.8461 -114.5911 286° West 428 493 45,000 -48 Level Los Angeles Center
Mon 06:08:39 PM 33.8786 -114.7281 286° West 427 491 44,900  Descending Los Angeles Center
Mon 06:10:43 PM 33.9442 -114.9989 286° West 419 482 45,000 32 Climbing Los Angeles Center
Mon 06:11:45 PM 33.9764 -115.1350 286° West 422 486 45,000  Level Los Angeles Center
Mon 06:12:47 PM 34.0094 -115.2714 286° West 425 489 45,000  Level Los Angeles Center
Mon 06:13:49 PM 34.0408 -115.4081 286° West 425 489 45,000  Level Los Angeles Center
Mon 06:14:51 PM 34.0794 -115.5739 286° West 429 494 45,000  Level Los Angeles Center
Mon 06:15:53 PM 34.1122 -115.7117 286° West 430 495 45,000  Level Los Angeles Center
Mon 06:16:55 PM 34.1433 -115.8506 285° West 429 494 45,000  Level Los Angeles Center
Mon 06:17:57 PM 34.1794 -116.0031 286° West 426 490 45,000  Level Los Angeles Center
Mon 06:18:59 PM 34.2108 -116.1411 285° West 427 491 45,000  Level Los Angeles Center
Mon 06:20:01 PM 34.2419 -116.2806 285° West 429 494 45,000  Level Los Angeles Center
Mon 06:21:03 PM 34.2742 -116.4178 286° West 427 491 45,000  Level Los Angeles Center
Mon 06:22:05 PM 34.3047 -116.5581 285° West 430 495 45,000  Level Los Angeles Center
Mon 06:23:07 PM 34.3356 -116.6978 285° West 431 496 45,000  Level Los Angeles Center
Mon 06:24:09 PM 34.3739 -116.8669 285° West 435 501 45,000  Level Los Angeles Center
Mon 06:25:12 PM 34.4050 -117.0086 285° West 434 499 45,000  Level Los Angeles Center
Mon 06:26:14 PM 34.4356 -117.1492 285° West 431 496 45,000  Level Los Angeles Center
Mon 06:27:16 PM 34.4656 -117.2883 285° West 428 493 45,000  Level Los Angeles Center
Mon 06:28:18 PM 34.4961 -117.4275 285° West 426 490 45,000  Level Los Angeles Center
Mon 06:29:20 PM 34.5258 -117.5675 284° West 427 491 45,000  Level Los Angeles Center
Mon 06:30:22 PM 34.5547 -117.7056 284° West 423 487 45,000  Level Los Angeles Center
Mon 06:31:24 PM 34.5911 -117.8703 285° West 420 483 45,000  Level Los Angeles Center
Mon 06:32:26 PM 34.6203 -118.0064 285° West 417 480 45,000  Level Los Angeles Center
Mon 06:33:28 PM 34.6750 -118.1275 299° West 412 474 45,000  Level Los Angeles Center
Mon 06:34:30 PM 34.7483 -118.2300 311° West 401 461 45,000  Level Los Angeles Center
Mon 06:35:32 PM 34.8272 -118.3275 315° West 403 464 45,000  Level Los Angeles Center
Mon 06:36:34 PM 34.9047 -118.4247 314° West 401 461 45,000  Level Los Angeles Center
Mon 06:37:37 PM 34.9922 -118.5336 314° West 402 463 45,000  Level Los Angeles Center
Mon 06:38:39 PM 35.0697 -118.6308 314° West 403 464 45,000  Level Los Angeles Center
Mon 06:39:41 PM 35.1472 -118.7275 314° West 401 461 45,000  Level Los Angeles Center
Mon 06:40:43 PM 35.2408 -118.8456 314° West 405 466 45,000  Level Los Angeles Center
Mon 06:41:45 PM 35.3172 -118.9439 314° West 403 464 45,000  Level Los Angeles Center
Mon 06:42:47 PM 35.3964 -119.0417 315° West 404 465 45,000  Level Los Angeles Center
Mon 06:43:49 PM 35.4744 -119.1406 314° West 405 466 45,000  Level Los Angeles Center
Mon 06:44:51 PM 35.5497 -119.2406 313° West 403 464 45,000  Level Los Angeles Center
Mon 06:45:53 PM 35.6247 -119.3383 313° West 397 457 45,000  Level Los Angeles Center
Mon 06:46:38 PM 35.6878 -119.4197 314° West 406 467 45,000  Level Oakland Center
Mon 06:47:39 PM 35.7650 -119.5200 314° West 404 465 45,000 -49 Level Oakland Center
Mon 06:48:41 PM 35.8583 -119.6411 314° West 408 470 44,900  Descending Oakland Center
Mon 06:49:42 PM 35.9369 -119.7428 314° West 413 475 45,000  Climbing Oakland Center
Mon 06:50:43 PM 36.0156 -119.8464 313° West 415 478 44,900 -787 Descending Oakland Center
Mon 06:51:44 PM 36.0933 -119.9464 314° West 409 471 43,400 -1,525 Descending Oakland Center
Mon 06:52:45 PM 36.1692 -120.0464 313° West 404 465 41,800 -1,721 Descending Oakland Center
Mon 06:53:46 PM 36.2419 -120.1411 314° West 388 447 39,900 -1,951 Descending Oakland Center
Mon 06:54:48 PM 36.3136 -120.2369 313° West 383 441 37,800 -2,049 Descending Oakland Center
Mon 06:55:49 PM 36.3856 -120.3347 312° West 384 442 35,700 -2,066 Descending Oakland Center
Mon 06:56:50 PM 36.4594 -120.4317 313° West 386 444 33,600 -2,410 Descending Oakland Center
Mon 06:57:51 PM 36.5528 -120.5575 313° West 406 467 30,800 -2,488 Descending Oakland Center
Mon 06:58:53 PM 36.6317 -120.6639 313° West 417 480 28,500 -2,244 Descending Oakland Center
Mon 06:59:54 PM 36.7100 -120.7725 312° West 420 483 26,200 -2,213 Descending Oakland Center
Mon 07:00:55 PM 36.7947 -120.8694 318° Northwest 419 482 24,000 -2,115 Descending Oakland Center
Mon 07:01:56 PM 36.8692 -120.9597 316° Northwest 395 455 21,900 -2,164 Descending Oakland Center
Mon 07:02:57 PM 36.9486 -121.0492 318° Northwest 386 444 19,600 -2,049 Descending Oakland Center
Mon 07:03:59 PM 37.0233 -121.1372 317° Northwest 371 427 17,700 -2,049 Descending Oakland Center
Mon 07:05:00 PM 37.1075 -121.2339 318° Northwest 344 396 15,400 -2,016 Descending Oakland Center
Mon 07:06:01 PM 37.1767 -121.3125 318° Northwest 336 387 13,600 -1,820 Descending Oakland Center
Mon 07:07:02 PM 37.2464 -121.3928 318° Northwest 338 389 11,700 -1,707 Descending Oakland Center
Mon 07:08:04 PM 37.3061 -121.4639 317° Northwest 301 346 10,100 -1,512 Descending Oakland Center
Mon 07:09:05 PM 37.3633 -121.5306 317° Northwest 277 319 8,600 -1,486 Descending Oakland Center
Mon 07:09:53 PM 37.4167 -121.5833 322° Northwest 280 322 7,400 -1,444 Descending Northern Cal TRACON
Mon 07:10:53 PM 37.4667 -121.6500 313° West 268 308 6,000 -700 Descending Northern Cal TRACON
Mon 07:11:53 PM 37.5000 -121.7333 297° West 261 300 6,000 -350 Level Northern Cal TRACON
Mon 07:12:53 PM 37.5333 -121.8000 302° West 255 293 5,300 -750 Descending Northern Cal TRACON
Mon 07:13:53 PM 37.5667 -121.8833 297° West 255 293 4,500 -650 Descending Northern Cal TRACON
Mon 07:14:53 PM 37.6000 -121.9500 302° West 220 253 4,000 -600 Descending Northern Cal TRACON
Mon 07:15:53 PM 37.6333 -122.0167 302° West 202 232 3,300 -700 Descending Northern Cal TRACON
Mon 07:16:53 PM 37.6667 -122.0667 310° West 192 221 2,600 -900 Descending Northern Cal TRACON
Mon 07:17:53 PM 37.7000 -122.1333 302° West 185 213 1,500 -1,000 Descending Northern Cal TRACON
Mon 07:18:53 PM 37.7167 -122.1667 302° West 132 152 600 -900 Descending Northern Cal TRACON
Mon 07:21:00 PM 37.7167 -122.2167 270° West  Level FlightAware Approximate
Mon 07:28:00 PM 37.7213 -122.2212 270° West  Level Estimated

Login

Don't have an account? Register now (free) for customized features, flight alerts, and more!